createdAt,value
2018-03-24T00:00:32.510Z,0
2018-03-24T00:01:32.751Z,0
2018-03-24T00:02:32.737Z,0
2018-03-24T00:03:32.588Z,0
2018-03-24T00:04:32.872Z,0
2018-03-24T00:05:32.468Z,0
2018-03-24T00:06:32.231Z,0
2018-03-24T00:07:32.703Z,0
2018-03-24T00:08:32.458Z,0
2018-03-24T00:09:32.492Z,0
2018-03-24T00:10:32.688Z,0
2018-03-24T00:11:32.468Z,0
2018-03-24T00:12:32.674Z,0
2018-03-24T00:13:32.410Z,0
2018-03-24T00:14:32.692Z,0
2018-03-24T00:15:32.492Z,0
2018-03-24T00:16:32.138Z,0
2018-03-24T00:17:32.785Z,0
2018-03-24T00:18:32.612Z,0
2018-03-24T00:19:32.348Z,0
2018-03-24T00:20:32.358Z,0
2018-03-24T00:21:32.873Z,0
2018-03-24T00:22:32.907Z,0
2018-03-24T00:23:32.754Z,0
2018-03-24T00:24:32.293Z,0
2018-03-24T00:25:32.397Z,0
2018-03-24T00:26:32.730Z,0
2018-03-24T00:27:32.732Z,0
2018-03-24T00:28:32.700Z,0
2018-03-24T00:29:32.524Z,0
2018-03-24T00:30:32.948Z,0
2018-03-24T00:31:32.817Z,0
2018-03-24T00:32:32.261Z,0
2018-03-24T00:33:32.563Z,0
2018-03-24T00:34:31.896Z,0
2018-03-24T00:35:32.918Z,0
2018-03-24T00:36:33.088Z,0
2018-03-24T00:37:32.066Z,0
2018-03-24T00:38:32.895Z,0
2018-03-24T00:39:32.301Z,0
2018-03-24T00:40:32.778Z,0
2018-03-24T00:41:32.193Z,0
2018-03-24T00:42:32.764Z,0
2018-03-24T00:43:32.857Z,0
2018-03-24T00:44:32.736Z,0
2018-03-24T00:45:32.096Z,0
2018-03-24T00:46:32.085Z,0
2018-03-24T00:47:32.015Z,0
2018-03-24T00:48:32.452Z,0
2018-03-24T00:49:32.470Z,0
2018-03-24T00:50:34.669Z,0
2018-03-24T00:51:32.635Z,0
2018-03-24T00:52:32.399Z,0
2018-03-24T00:53:32.789Z,0
2018-03-24T00:54:32.401Z,0
2018-03-24T00:55:32.827Z,0
2018-03-24T00:56:32.640Z,0
2018-03-24T00:57:32.316Z,0
2018-03-24T00:58:32.033Z,0
2018-03-24T00:59:31.844Z,0
2018-03-24T01:00:32.417Z,0
2018-03-24T01:01:32.419Z,0
2018-03-24T01:02:32.561Z,0
2018-03-24T01:03:32.581Z,0
2018-03-24T01:04:32.881Z,0
2018-03-24T01:05:32.223Z,0
2018-03-24T01:06:33.316Z,0
2018-03-24T01:07:33.315Z,0
2018-03-24T01:08:32.265Z,0
2018-03-24T01:09:31.638Z,0
2018-03-24T01:10:32.540Z,0
2018-03-24T01:11:31.991Z,0
2018-03-24T01:12:31.889Z,0
2018-03-24T01:13:32.013Z,0
2018-03-24T01:14:32.454Z,0
2018-03-24T01:15:32.500Z,0
2018-03-24T01:16:31.673Z,0
2018-03-24T01:17:32.146Z,0
2018-03-24T01:18:32.119Z,0
2018-03-24T01:19:32.118Z,0
2018-03-24T01:20:32.450Z,0
2018-03-24T01:21:32.259Z,0
2018-03-24T01:22:32.209Z,0
2018-03-24T01:23:32.132Z,0
2018-03-24T01:24:32.305Z,0
2018-03-24T01:25:33.124Z,0
2018-03-24T01:26:31.734Z,0
2018-03-24T01:27:31.752Z,0
2018-03-24T01:28:31.518Z,0
2018-03-24T01:29:31.712Z,0
2018-03-24T01:30:31.694Z,0
2018-03-24T01:31:31.739Z,0
2018-03-24T01:32:31.860Z,0
2018-03-24T01:33:31.708Z,0
2018-03-24T01:34:31.945Z,0
2018-03-24T01:35:31.719Z,0
2018-03-24T01:36:31.941Z,0
2018-03-24T01:37:31.921Z,0
2018-03-24T01:38:31.918Z,0
2018-03-24T01:39:31.403Z,0
2018-03-24T01:40:31.653Z,0
2018-03-24T01:41:31.946Z,0
2018-03-24T01:42:31.620Z,0
2018-03-24T01:43:31.625Z,0
2018-03-24T01:44:31.863Z,0
2018-03-24T01:45:31.596Z,0
2018-03-24T01:46:31.587Z,0
2018-03-24T01:47:31.850Z,0
2018-03-24T01:48:31.554Z,0
2018-03-24T01:49:31.560Z,0
2018-03-24T01:50:31.544Z,0
2018-03-24T01:51:31.322Z,0
2018-03-24T01:52:31.842Z,0
2018-03-24T01:53:31.760Z,0
2018-03-24T01:54:31.307Z,0
2018-03-24T01:55:31.745Z,0
2018-03-24T01:56:31.477Z,0
2018-03-24T01:57:31.526Z,0
2018-03-24T01:58:31.821Z,0
2018-03-24T01:59:30.946Z,0
2018-03-24T02:00:31.458Z,0
2018-03-24T02:01:31.702Z,0
2018-03-24T02:02:31.682Z,0
2018-03-24T02:03:31.681Z,0
2018-03-24T02:04:31.401Z,0
2018-03-24T02:05:31.648Z,0
2018-03-24T02:06:31.439Z,0
2018-03-24T02:07:31.114Z,0
2018-03-24T02:08:31.385Z,0
2018-03-24T02:09:31.356Z,0
2018-03-24T02:10:31.339Z,0
2018-03-24T02:11:31.590Z,0
2018-03-24T02:12:31.344Z,0
2018-03-24T02:13:31.656Z,0
2018-03-24T02:14:31.316Z,0
2018-03-24T02:15:31.347Z,0
2018-03-24T02:16:31.561Z,0
2018-03-24T02:17:31.287Z,0
2018-03-24T02:18:31.517Z,0
2018-03-24T02:19:31.085Z,0
2018-03-24T02:20:31.280Z,0
2018-03-24T02:21:31.052Z,0
2018-03-24T02:22:31.479Z,0
2018-03-24T02:23:30.958Z,0
2018-03-24T02:24:31.208Z,0
2018-03-24T02:25:30.946Z,0
2018-03-24T02:26:30.992Z,0
2018-03-24T02:27:31.270Z,0
2018-03-24T02:28:31.196Z,0
2018-03-24T02:29:31.207Z,0
2018-03-24T02:30:30.899Z,0
2018-03-24T02:31:31.155Z,0
2018-03-24T02:32:31.459Z,0
2018-03-24T02:33:31.143Z,0
2018-03-24T02:34:30.910Z,0
2018-03-24T02:35:30.846Z,0
2018-03-24T02:36:31.082Z,0
2018-03-24T02:37:31.334Z,0
2018-03-24T02:38:31.393Z,0
2018-03-24T02:39:31.227Z,0
2018-03-24T02:40:31.375Z,0
2018-03-24T02:41:31.068Z,0
2018-03-24T02:42:31.066Z,0
2018-03-24T02:43:31.043Z,0
2018-03-24T02:44:31.274Z,0
2018-03-24T02:45:31.253Z,0
2018-03-24T02:46:31.000Z,0
2018-03-24T02:47:31.256Z,0
2018-03-24T02:48:31.291Z,0
2018-03-24T02:49:30.979Z,0
2018-03-24T02:50:31.211Z,0
2018-03-24T02:51:30.956Z,0
2018-03-24T02:52:31.186Z,0
2018-03-24T02:53:31.180Z,0
2018-03-24T02:54:31.155Z,0
2018-03-24T02:55:30.901Z,0
2018-03-24T02:56:31.407Z,0
2018-03-24T02:57:30.628Z,0
2018-03-24T02:58:30.865Z,0
2018-03-24T02:59:31.344Z,0
2018-03-24T03:00:30.880Z,0
2018-03-24T03:01:31.104Z,0
2018-03-24T03:02:31.104Z,0
2018-03-24T03:03:30.827Z,0
2018-03-24T03:04:31.102Z,0
2018-03-24T03:05:30.808Z,0
2018-03-24T03:06:30.530Z,0
2018-03-24T03:07:30.777Z,0
2018-03-24T03:08:30.769Z,0
2018-03-24T03:09:30.758Z,0
2018-03-24T03:10:30.740Z,0
2018-03-24T03:11:30.743Z,0
2018-03-24T03:12:31.012Z,0
2018-03-24T03:13:30.723Z,0
2018-03-24T03:14:30.720Z,0
2018-03-24T03:15:30.775Z,0
2018-03-24T03:16:30.936Z,0
2018-03-24T03:17:30.916Z,0
2018-03-24T03:18:30.664Z,0
2018-03-24T03:19:30.647Z,0
2018-03-24T03:20:30.650Z,0
2018-03-24T03:21:30.876Z,0
2018-03-24T03:22:30.753Z,0
2018-03-24T03:23:30.674Z,0
2018-03-24T03:24:30.356Z,0
2018-03-24T03:25:31.142Z,0
2018-03-24T03:26:30.586Z,0
2018-03-24T03:27:30.572Z,0
2018-03-24T03:28:30.560Z,0
2018-03-24T03:29:30.548Z,0
2018-03-24T03:30:30.795Z,0
2018-03-24T03:31:30.811Z,0
2018-03-24T03:32:30.505Z,0
2018-03-24T03:33:30.771Z,0
2018-03-24T03:34:32.697Z,0
2018-03-24T03:35:30.509Z,0
2018-03-24T03:36:30.459Z,0
2018-03-24T03:37:30.462Z,0
2018-03-24T03:38:30.447Z,0
2018-03-24T03:39:30.443Z,0
2018-03-24T03:40:30.682Z,0
2018-03-24T03:41:30.680Z,0
2018-03-24T03:42:30.989Z,0
2018-03-24T03:43:30.662Z,0
2018-03-24T03:44:30.733Z,0
2018-03-24T03:45:30.361Z,0
2018-03-24T03:46:30.655Z,0
2018-03-24T03:47:30.971Z,0
2018-03-24T03:48:30.622Z,0
2018-03-24T03:49:30.667Z,0
2018-03-24T03:50:30.583Z,0
2018-03-24T03:51:31.447Z,0
2018-03-24T03:52:31.000Z,0
2018-03-24T03:53:30.239Z,0
2018-03-24T03:54:30.508Z,0
2018-03-24T03:55:30.516Z,0
2018-03-24T03:56:30.810Z,0
2018-03-24T03:57:30.375Z,0
2018-03-24T03:58:30.217Z,0
2018-03-24T03:59:30.850Z,0
2018-03-24T04:00:30.208Z,0
2018-03-24T04:01:29.885Z,0
2018-03-24T04:02:30.462Z,0
2018-03-24T04:03:30.504Z,0
2018-03-24T04:04:30.699Z,0
2018-03-24T04:05:32.377Z,0
2018-03-24T04:06:30.415Z,0
2018-03-24T04:07:30.959Z,0
2018-03-24T04:08:30.480Z,0
2018-03-24T04:09:30.308Z,0
2018-03-24T04:10:31.468Z,0
2018-03-24T04:11:30.711Z,0
2018-03-24T04:12:30.349Z,0
2018-03-24T04:13:30.101Z,0
2018-03-24T04:14:30.104Z,0
2018-03-24T04:15:31.961Z,0
2018-03-24T04:16:30.333Z,0
2018-03-24T04:17:30.374Z,0
2018-03-24T04:18:30.598Z,0
2018-03-24T04:19:29.790Z,0
2018-03-24T04:20:30.561Z,0
2018-03-24T04:21:30.096Z,0
2018-03-24T04:22:30.642Z,0
2018-03-24T04:23:29.633Z,0
2018-03-24T04:24:29.940Z,0
2018-03-24T04:25:29.936Z,0
2018-03-24T04:26:30.219Z,0
2018-03-24T04:27:30.005Z,0
2018-03-24T04:28:30.418Z,0
2018-03-24T04:29:30.142Z,0
2018-03-24T04:30:30.175Z,0
2018-03-24T04:31:30.206Z,0
2018-03-24T04:32:30.398Z,0
2018-03-24T04:33:29.824Z,0
2018-03-24T04:34:29.876Z,0
2018-03-24T04:35:29.889Z,0
2018-03-24T04:36:29.880Z,0
2018-03-24T04:37:30.098Z,0
2018-03-24T04:38:29.550Z,0
2018-03-24T04:39:29.820Z,0
2018-03-24T04:40:29.810Z,0
2018-03-24T04:41:29.519Z,0
2018-03-24T04:42:30.016Z,0
2018-03-24T04:43:30.023Z,0
2018-03-24T04:44:30.035Z,0
2018-03-24T04:45:29.993Z,0
2018-03-24T04:46:29.478Z,4
2018-03-24T04:47:29.451Z,4
2018-03-24T04:48:29.703Z,0
2018-03-24T04:49:29.714Z,0
2018-03-24T04:50:29.927Z,4
2018-03-24T04:51:29.413Z,4
2018-03-24T04:52:29.721Z,4
2018-03-24T04:53:29.903Z,4
2018-03-24T04:54:29.892Z,8
2018-03-24T04:55:29.880Z,8
2018-03-24T04:56:29.618Z,8
2018-03-24T04:57:29.869Z,8
2018-03-24T04:58:29.843Z,8
2018-03-24T04:59:29.642Z,12
2018-03-24T05:00:29.838Z,16
2018-03-24T05:01:29.558Z,20
2018-03-24T05:02:29.798Z,20
2018-03-24T05:03:29.530Z,28
2018-03-24T05:04:29.781Z,32
2018-03-24T05:05:29.806Z,36
2018-03-24T05:06:29.752Z,44
2018-03-24T05:07:29.752Z,52
2018-03-24T05:08:29.229Z,60
2018-03-24T05:09:29.468Z,64
2018-03-24T05:10:29.462Z,76
2018-03-24T05:11:29.196Z,88
2018-03-24T05:12:29.694Z,100
2018-03-24T05:13:29.676Z,112
2018-03-24T05:14:29.696Z,124
2018-03-24T05:15:29.673Z,140
2018-03-24T05:16:29.670Z,160
2018-03-24T05:17:29.139Z,180
2018-03-24T05:18:29.372Z,196
2018-03-24T05:19:29.613Z,216
2018-03-24T05:20:29.351Z,240
2018-03-24T05:21:29.353Z,264
2018-03-24T05:22:29.632Z,288
2018-03-24T05:23:29.314Z,312
2018-03-24T05:24:29.558Z,344
2018-03-24T05:25:29.552Z,372
2018-03-24T05:26:29.300Z,404
2018-03-24T05:27:29.572Z,432
2018-03-24T05:28:29.266Z,468
2018-03-24T05:29:29.063Z,500
2018-03-24T05:30:29.246Z,536
2018-03-24T05:31:29.478Z,572
2018-03-24T05:32:28.959Z,612
2018-03-24T05:33:28.950Z,652
2018-03-24T05:34:28.953Z,692
2018-03-24T05:35:29.178Z,748
2018-03-24T05:36:29.168Z,776
2018-03-24T05:37:30.611Z,816
2018-03-24T05:38:29.162Z,864
2018-03-24T05:39:29.140Z,908
2018-03-24T05:40:29.399Z,956
2018-03-24T05:41:29.113Z,1004
2018-03-24T05:42:29.403Z,1052
2018-03-24T05:43:28.837Z,1112
2018-03-24T05:44:29.108Z,1168
2018-03-24T05:45:29.077Z,1220
2018-03-24T05:46:29.342Z,1284
2018-03-24T05:47:29.302Z,1340
2018-03-24T05:48:29.081Z,1400
2018-03-24T05:49:29.049Z,1456
2018-03-24T05:50:29.029Z,1516
2018-03-24T05:51:29.261Z,1576
2018-03-24T05:52:29.033Z,1628
2018-03-24T05:53:29.008Z,1732
2018-03-24T05:54:28.993Z,1748
2018-03-24T05:55:28.970Z,1808
2018-03-24T05:56:28.985Z,1860
2018-03-24T05:57:28.955Z,1912
2018-03-24T05:58:28.934Z,1972
2018-03-24T05:59:28.926Z,2032
2018-03-24T06:00:29.168Z,2096
2018-03-24T06:01:28.954Z,2152
2018-03-24T06:02:28.889Z,2212
2018-03-24T06:03:28.887Z,2264
2018-03-24T06:04:28.877Z,2324
2018-03-24T06:05:29.118Z,2384
2018-03-24T06:06:28.860Z,2440
2018-03-24T06:07:28.865Z,2500
2018-03-24T06:08:28.844Z,2556
2018-03-24T06:09:29.083Z,2616
2018-03-24T06:10:28.866Z,2672
2018-03-24T06:11:28.809Z,2808
2018-03-24T06:12:28.836Z,2776
2018-03-24T06:13:29.135Z,2824
2018-03-24T06:14:28.855Z,2860
2018-03-24T06:15:29.027Z,2908
2018-03-24T06:16:28.759Z,2960
2018-03-24T06:17:28.791Z,3008
2018-03-24T06:26:42.448Z,3416
2018-03-24T06:27:42.133Z,3448
2018-03-24T06:28:42.377Z,3488
2018-03-24T06:29:42.616Z,3536
2018-03-24T06:30:42.092Z,3576
2018-03-24T06:31:42.660Z,3608
2018-03-24T06:32:42.089Z,3640
2018-03-24T06:33:42.322Z,3656
2018-03-24T06:34:42.574Z,3688
2018-03-24T06:35:42.300Z,3724
2018-03-24T06:36:42.303Z,3776
2018-03-24T06:37:42.276Z,3828
2018-03-24T06:38:42.519Z,3872
2018-03-24T06:39:42.298Z,3920
2018-03-24T06:40:42.509Z,3980
2018-03-24T06:41:42.805Z,4016
2018-03-24T06:42:42.519Z,4040
2018-03-24T06:43:42.460Z,4068
2018-03-24T06:44:42.242Z,4108
2018-03-24T06:45:42.190Z,4144
2018-03-24T06:46:42.167Z,4204
2018-03-24T06:47:42.177Z,4288
2018-03-24T06:48:41.897Z,4444
2018-03-24T06:49:42.400Z,4684
2018-03-24T06:50:42.404Z,5000
2018-03-24T06:51:43.376Z,5372
2018-03-24T06:52:42.412Z,5580
2018-03-24T06:53:42.108Z,5824
2018-03-24T06:54:42.372Z,6064
2018-03-24T06:55:42.084Z,6068
2018-03-24T06:56:42.396Z,5944
2018-03-24T06:57:41.833Z,5840
2018-03-24T06:58:42.343Z,5888
2018-03-24T06:59:42.326Z,6036
2018-03-24T07:00:42.196Z,6056
2018-03-24T07:01:42.314Z,6032
2018-03-24T07:02:42.042Z,6096
2018-03-24T07:03:42.278Z,6160
2018-03-24T07:04:42.030Z,6256
2018-03-24T07:05:41.761Z,6252
2018-03-24T07:06:42.278Z,6108
2018-03-24T07:07:41.853Z,5964
2018-03-24T07:08:42.337Z,6052
2018-03-24T07:09:42.273Z,6328
2018-03-24T07:10:41.983Z,6448
2018-03-24T07:11:41.729Z,6704
2018-03-24T07:12:42.236Z,6844
2018-03-24T07:13:42.237Z,7452
2018-03-24T07:14:42.219Z,7876
2018-03-24T07:15:41.968Z,8096
2018-03-24T07:16:41.961Z,8248
2018-03-24T07:17:42.215Z,8416
2018-03-24T07:18:41.950Z,8540
2018-03-24T07:19:42.194Z,8564
2018-03-24T07:20:41.938Z,8652
2018-03-24T07:21:41.426Z,8716
2018-03-24T07:22:41.690Z,8732
2018-03-24T07:23:42.192Z,8732
2018-03-24T07:24:41.957Z,8752
2018-03-24T07:25:41.932Z,8824
2018-03-24T07:26:42.237Z,8820
2018-03-24T07:27:42.185Z,8852
2018-03-24T07:28:41.688Z,8936
2018-03-24T07:29:41.687Z,9008
2018-03-24T07:30:41.944Z,8924
2018-03-24T07:31:41.694Z,9104
2018-03-24T07:32:41.973Z,9264
2018-03-24T07:33:41.692Z,9236
2018-03-24T07:34:41.925Z,9268
2018-03-24T07:35:42.213Z,9296
2018-03-24T07:36:42.192Z,9368
2018-03-24T07:37:41.962Z,9392
2018-03-24T07:38:41.949Z,9364
2018-03-24T07:39:41.941Z,9340
2018-03-24T07:40:41.694Z,9320
2018-03-24T07:41:41.996Z,9252
2018-03-24T07:42:41.716Z,9308
2018-03-24T07:43:42.223Z,9252
2018-03-24T07:44:41.704Z,9188
2018-03-24T07:45:41.446Z,9216
2018-03-24T07:46:42.201Z,9236
2018-03-24T07:47:41.793Z,9244
2018-03-24T07:48:41.953Z,9328
2018-03-24T07:49:41.706Z,9248
2018-03-24T07:50:41.699Z,9172
2018-03-24T07:51:41.977Z,9180
2018-03-24T07:52:42.220Z,9156
2018-03-24T07:53:41.978Z,9188
2018-03-24T07:54:41.447Z,9196
2018-03-24T07:55:41.958Z,9188
2018-03-24T07:56:42.278Z,9140
2018-03-24T07:57:42.215Z,9172
2018-03-24T07:58:41.968Z,9224
2018-03-24T07:59:41.452Z,9168
2018-03-24T08:00:42.234Z,9108
2018-03-24T08:01:42.225Z,9108
2018-03-24T08:02:41.988Z,9088
2018-03-24T08:03:41.980Z,8908
2018-03-24T08:04:41.984Z,8768
2018-03-24T08:05:42.236Z,8884
2018-03-24T08:06:41.971Z,8832
2018-03-24T08:07:42.249Z,8788
2018-03-24T08:08:42.256Z,8940
2018-03-24T08:09:42.350Z,8960
2018-03-24T08:10:41.732Z,8940
2018-03-24T08:11:42.304Z,8984
2018-03-24T08:12:42.001Z,8928
2018-03-24T08:13:42.003Z,8828
2018-03-24T08:14:42.254Z,8788
2018-03-24T08:15:42.255Z,8752
2018-03-24T08:16:42.255Z,8656
2018-03-24T08:17:41.529Z,8640
2018-03-24T08:18:42.011Z,8588
2018-03-24T08:19:42.033Z,8580
2018-03-24T08:20:42.285Z,8488
2018-03-24T08:21:42.038Z,8472
2018-03-24T08:22:42.329Z,8392
2018-03-24T08:23:42.291Z,8332
2018-03-24T08:24:41.781Z,8212
2018-03-24T08:25:42.296Z,8192
2018-03-24T08:26:42.367Z,8256
2018-03-24T08:27:42.295Z,8252
2018-03-24T08:28:42.034Z,8192
2018-03-24T08:29:42.061Z,8192
2018-03-24T08:30:42.063Z,8128
2018-03-24T08:31:42.310Z,8076
2018-03-24T08:32:42.317Z,8140
2018-03-24T08:33:42.318Z,8096
2018-03-24T08:34:42.064Z,8108
2018-03-24T08:35:42.320Z,8000
2018-03-24T08:36:42.338Z,7992
2018-03-24T08:37:42.336Z,7980
2018-03-24T08:38:42.323Z,7932
2018-03-24T08:39:42.067Z,7976
2018-03-24T08:40:41.815Z,8044
2018-03-24T08:41:42.326Z,8048
2018-03-24T08:42:42.324Z,8104
2018-03-24T08:43:42.335Z,8128
2018-03-24T08:44:42.150Z,8116
2018-03-24T08:45:42.393Z,8096
2018-03-24T08:46:42.375Z,8168
2018-03-24T08:47:42.325Z,8160
2018-03-24T08:48:42.328Z,8148
2018-03-24T08:49:42.327Z,8084
2018-03-24T08:50:42.139Z,8068
2018-03-24T08:51:42.067Z,8160
2018-03-24T08:52:42.064Z,8172
2018-03-24T08:53:42.062Z,8216
2018-03-24T08:54:42.052Z,8184
2018-03-24T08:55:42.057Z,7928
2018-03-24T08:56:42.353Z,7980
2018-03-24T08:57:41.800Z,8204
2018-03-24T08:58:41.798Z,8248
2018-03-24T08:59:43.288Z,8320
2018-03-24T09:00:41.945Z,8240
2018-03-24T09:01:42.050Z,8184
2018-03-24T09:02:42.034Z,8268
2018-03-24T09:03:42.289Z,8276
2018-03-24T09:04:42.047Z,8260
2018-03-24T09:05:42.300Z,8204
2018-03-24T09:06:42.392Z,8264
2018-03-24T09:07:42.295Z,8352
2018-03-24T09:08:42.267Z,8352
2018-03-24T09:09:42.359Z,7780
2018-03-24T09:10:42.101Z,8028
2018-03-24T09:11:42.001Z,8328
2018-03-24T09:12:42.006Z,8372
2018-03-24T09:13:42.012Z,8464
2018-03-24T09:14:42.303Z,8236
2018-03-24T09:15:42.010Z,8276
2018-03-24T09:16:42.040Z,8328
2018-03-24T09:17:41.994Z,8140
2018-03-24T09:18:42.015Z,8188
2018-03-24T09:19:42.235Z,8260
2018-03-24T09:20:41.998Z,8236
2018-03-24T09:21:42.458Z,8132
2018-03-24T09:22:42.609Z,8076
2018-03-24T09:23:43.139Z,8144
2018-03-24T09:24:42.600Z,8236
2018-03-24T09:25:41.734Z,8204
2018-03-24T09:26:42.000Z,7988
2018-03-24T09:27:41.962Z,8092
2018-03-24T09:28:41.956Z,8032
2018-03-24T09:29:42.201Z,7988
2018-03-24T09:30:41.959Z,7888
2018-03-24T09:31:42.038Z,8008
2018-03-24T09:32:41.689Z,7928
2018-03-24T09:33:41.934Z,7904
2018-03-24T09:34:42.188Z,7928
2018-03-24T09:35:41.922Z,7856
2018-03-24T09:36:42.208Z,7808
2018-03-24T09:37:41.920Z,7712
2018-03-24T09:38:42.206Z,7752
2018-03-24T09:39:42.169Z,7712
2018-03-24T09:40:42.154Z,7748
2018-03-24T09:41:42.001Z,7772
2018-03-24T09:42:42.164Z,7552
2018-03-24T09:43:41.898Z,7736
2018-03-24T09:44:41.900Z,7628
2018-03-24T09:45:42.155Z,7720
2018-03-24T09:46:43.339Z,7720
2018-03-24T09:47:41.893Z,7696
2018-03-24T09:48:41.878Z,7688
2018-03-24T09:49:41.877Z,7716
2018-03-24T09:50:42.199Z,7604
2018-03-24T09:51:41.933Z,7624
2018-03-24T09:52:43.016Z,7460
2018-03-24T09:53:42.599Z,7496
2018-03-24T09:54:42.157Z,7480
2018-03-24T09:55:42.595Z,7424
2018-03-24T09:56:43.059Z,7356
2018-03-24T09:57:42.717Z,7496
2018-03-24T09:58:42.983Z,7408
2018-03-24T09:59:41.401Z,7464
2018-03-24T10:00:42.361Z,7468
2018-03-24T10:01:42.195Z,7372
2018-03-24T10:02:42.306Z,7248
2018-03-24T10:03:42.729Z,7268
2018-03-24T10:04:42.419Z,7304
2018-03-24T10:05:41.914Z,7288
2018-03-24T10:06:43.163Z,7240
2018-03-24T10:07:42.260Z,7268
2018-03-24T10:08:42.472Z,7232
2018-03-24T10:09:42.588Z,7200
2018-03-24T10:10:42.390Z,7168
2018-03-24T10:11:42.576Z,7156
2018-03-24T10:12:41.875Z,7180
2018-03-24T10:13:41.967Z,7144
2018-03-24T10:14:41.846Z,7112
2018-03-24T10:15:41.875Z,7060
2018-03-24T10:16:42.693Z,7020
2018-03-24T10:17:42.320Z,7076
2018-03-24T10:18:42.122Z,7048
2018-03-24T10:19:42.365Z,7024
2018-03-24T10:20:41.701Z,6764
2018-03-24T10:21:42.184Z,7124
2018-03-24T10:22:42.238Z,6984
2018-03-24T10:23:41.965Z,7004
2018-03-24T10:24:42.498Z,7036
2018-03-24T10:25:42.576Z,7040
2018-03-24T10:26:42.114Z,6960
2018-03-24T10:27:42.301Z,6920
2018-03-24T10:57:47.912Z,6572
2018-03-24T10:58:47.653Z,6528
2018-03-24T10:59:48.140Z,6508
2018-03-24T11:00:47.875Z,6500
2018-03-24T11:01:48.112Z,6508
2018-03-24T11:02:47.598Z,6492
2018-03-24T11:03:47.900Z,6484
2018-03-24T11:04:47.846Z,6456
2018-03-24T11:05:48.086Z,6428
2018-03-24T11:06:47.844Z,6444
2018-03-24T11:07:47.643Z,6436
2018-03-24T11:08:48.074Z,6400
2018-03-24T11:09:47.605Z,6400
2018-03-24T11:10:48.073Z,6396
2018-03-24T11:11:47.842Z,6392
2018-03-24T11:12:47.864Z,6340
2018-03-24T11:13:47.822Z,6296
2018-03-24T11:14:47.804Z,6300
2018-03-24T11:15:48.038Z,6304
2018-03-24T11:16:47.854Z,6320
2018-03-24T11:17:47.920Z,6308
2018-03-24T11:18:47.273Z,6308
2018-03-24T11:19:47.828Z,6252
2018-03-24T11:20:48.024Z,6260
2018-03-24T11:21:47.562Z,6236
2018-03-24T11:22:47.807Z,6200
2018-03-24T11:23:48.023Z,6212
2018-03-24T11:24:48.024Z,6164
2018-03-24T11:25:47.509Z,6144
2018-03-24T11:26:47.509Z,6148
2018-03-24T11:27:48.003Z,6148
2018-03-24T11:28:48.001Z,6164
2018-03-24T11:29:48.010Z,6116
2018-03-24T11:30:47.481Z,6052
2018-03-24T11:31:47.995Z,6060
2018-03-24T11:32:48.007Z,6060
2018-03-24T11:33:47.754Z,6036
2018-03-24T11:34:47.734Z,6040
2018-03-24T11:35:48.075Z,6052
2018-03-24T11:36:47.865Z,6040
2018-03-24T11:37:47.943Z,6032
2018-03-24T11:38:47.629Z,6008
2018-03-24T11:39:47.722Z,5996
2018-03-24T11:40:48.323Z,5984
2018-03-24T11:41:47.458Z,5976
2018-03-24T11:42:47.866Z,5968
2018-03-24T11:43:47.510Z,5956
2018-03-24T11:44:47.971Z,5932
2018-03-24T11:45:48.167Z,5892
2018-03-24T11:46:47.701Z,5876
2018-03-24T11:47:47.719Z,5884
2018-03-24T11:48:47.714Z,5900
2018-03-24T11:49:47.972Z,5880
2018-03-24T11:50:47.962Z,5868
2018-03-24T11:51:48.092Z,5840
2018-03-24T11:52:47.944Z,5808
2018-03-24T11:53:47.688Z,5796
2018-03-24T11:54:47.681Z,5796
2018-03-24T11:55:47.994Z,5768
2018-03-24T11:56:47.975Z,5760
2018-03-24T11:57:47.997Z,5720
2018-03-24T11:58:47.449Z,5704
2018-03-24T11:59:47.968Z,5696
2018-03-24T12:00:47.952Z,5680
2018-03-24T12:01:47.903Z,5672
2018-03-24T12:02:47.920Z,5632
2018-03-24T12:03:47.671Z,5648
2018-03-24T12:04:47.405Z,5620
2018-03-24T12:05:47.454Z,5628
2018-03-24T12:06:47.750Z,5612
2018-03-24T12:07:47.919Z,5604
2018-03-24T12:08:47.894Z,5600
2018-03-24T12:09:47.744Z,5616
2018-03-24T12:10:47.731Z,5608
2018-03-24T12:11:47.938Z,5624
2018-03-24T12:12:47.391Z,5612
2018-03-24T12:13:47.896Z,5620
2018-03-24T12:14:47.643Z,5608
2018-03-24T12:15:47.884Z,5592
2018-03-24T12:16:47.879Z,5584
2018-03-24T12:17:47.913Z,5552
2018-03-24T12:18:47.371Z,5548
2018-03-24T12:19:47.367Z,5544
2018-03-24T12:20:47.370Z,5544
2018-03-24T12:21:47.608Z,5536
2018-03-24T12:22:47.882Z,5520
2018-03-24T12:23:47.860Z,5536
2018-03-24T12:24:47.607Z,5524
2018-03-24T12:25:47.703Z,5524
2018-03-24T12:26:47.353Z,5508
2018-03-24T12:27:47.656Z,5512
2018-03-24T12:28:47.865Z,5496
2018-03-24T12:29:47.353Z,5488
2018-03-24T12:30:47.832Z,5464
2018-03-24T12:31:47.602Z,5464
2018-03-24T12:32:47.588Z,5440
2018-03-24T12:33:47.343Z,5436
2018-03-24T12:34:47.619Z,5424
2018-03-24T12:35:47.596Z,5444
2018-03-24T12:36:47.845Z,5440
2018-03-24T12:37:47.615Z,5436
2018-03-24T12:38:47.320Z,5432
2018-03-24T12:39:47.878Z,5424
2018-03-24T12:40:47.693Z,5424
2018-03-24T12:41:47.915Z,5400
2018-03-24T12:42:48.003Z,5392
2018-03-24T12:43:47.572Z,5360
2018-03-24T12:44:47.894Z,5368
2018-03-24T12:45:47.338Z,5352
2018-03-24T12:46:47.836Z,5352
2018-03-24T12:47:47.605Z,5336
2018-03-24T12:48:47.608Z,5324
2018-03-24T12:49:47.935Z,5316
2018-03-24T12:50:47.833Z,5300
2018-03-24T12:51:47.577Z,5288
2018-03-24T12:52:47.941Z,5264
2018-03-24T12:53:47.904Z,5260
2018-03-24T12:54:47.797Z,5244
2018-03-24T12:55:47.805Z,5240
2018-03-24T12:56:47.298Z,5224
2018-03-24T12:57:47.894Z,5200
2018-03-24T12:58:47.581Z,5188
2018-03-24T12:59:47.984Z,5172
2018-03-24T13:00:47.784Z,5172
2018-03-24T13:01:47.725Z,5160
2018-03-24T13:02:47.521Z,5152
2018-03-24T13:03:47.536Z,5136
2018-03-24T13:04:47.497Z,5124
2018-03-24T13:05:47.509Z,5116
2018-03-24T13:06:47.327Z,5096
2018-03-24T13:07:47.523Z,5088
2018-03-24T13:08:47.764Z,5064
2018-03-24T13:09:47.606Z,5036
2018-03-24T13:10:47.510Z,5028
2018-03-24T13:11:47.605Z,5016
2018-03-24T13:12:47.551Z,5012
2018-03-24T13:13:47.496Z,5000
2018-03-24T13:14:47.792Z,4992
2018-03-24T13:15:47.727Z,4996
2018-03-24T13:16:47.459Z,4988
2018-03-24T13:17:47.707Z,4984
2018-03-24T13:18:47.720Z,4976
2018-03-24T13:19:47.519Z,4960
2018-03-24T13:20:47.612Z,4952
2018-03-24T13:21:47.703Z,4940
2018-03-24T13:22:47.879Z,4932
2018-03-24T13:23:47.441Z,4928
2018-03-24T13:24:47.304Z,4924
2018-03-24T13:25:47.705Z,4920
2018-03-24T13:26:47.697Z,4908
2018-03-24T13:27:47.574Z,4904
2018-03-24T13:28:47.436Z,4896
2018-03-24T13:29:47.700Z,4884
2018-03-24T13:30:47.453Z,4876
2018-03-24T13:31:47.684Z,4876
2018-03-24T13:32:47.428Z,4884
2018-03-24T13:33:47.431Z,4868
2018-03-24T13:34:46.922Z,4868
2018-03-24T13:35:47.704Z,4868
2018-03-24T13:36:47.721Z,4852
2018-03-24T13:37:47.153Z,4856
2018-03-24T13:38:47.446Z,4844
2018-03-24T13:39:47.660Z,4844
2018-03-24T13:40:47.663Z,4852
2018-03-24T13:41:47.650Z,4860
2018-03-24T13:42:47.709Z,4860
2018-03-24T13:43:47.401Z,4848
2018-03-24T13:44:47.162Z,4848
2018-03-24T13:45:47.391Z,4844
2018-03-24T13:46:47.685Z,4852
2018-03-24T13:47:47.651Z,4852
2018-03-24T13:48:47.142Z,4840
2018-03-24T13:49:47.123Z,4836
2018-03-24T13:50:47.666Z,4828
2018-03-24T13:51:47.632Z,4832
2018-03-24T13:52:47.439Z,4824
2018-03-24T13:53:47.638Z,4824
2018-03-24T13:54:47.171Z,4816
2018-03-24T13:55:47.156Z,4836
2018-03-24T13:56:47.107Z,4852
2018-03-24T13:57:47.192Z,4848
2018-03-24T13:58:47.752Z,4840
2018-03-24T13:59:47.499Z,4832
2018-03-24T14:00:47.106Z,4828
2018-03-24T14:01:47.612Z,4820
2018-03-24T14:02:47.383Z,4824
2018-03-24T14:03:47.530Z,4832
2018-03-24T14:04:47.354Z,4844
2018-03-24T14:05:47.387Z,4844
2018-03-24T14:06:46.965Z,4848
2018-03-24T14:07:47.104Z,4852
2018-03-24T14:08:47.085Z,4852
2018-03-24T14:09:47.339Z,4868
2018-03-24T14:10:47.389Z,4876
2018-03-24T14:11:47.583Z,4864
2018-03-24T14:12:47.727Z,4864
2018-03-24T14:13:47.158Z,4852
2018-03-24T14:14:47.622Z,4856
2018-03-24T14:15:46.810Z,4860
2018-03-24T14:16:47.578Z,4864
2018-03-24T14:17:47.316Z,4860
2018-03-24T14:18:47.340Z,4856
2018-03-24T14:19:47.566Z,4852
2018-03-24T14:20:47.302Z,4844
2018-03-24T14:21:47.059Z,4840
2018-03-24T14:22:47.567Z,4840
2018-03-24T14:23:47.621Z,4844
2018-03-24T14:24:47.037Z,4848
2018-03-24T14:25:47.312Z,4844
2018-03-24T14:26:47.548Z,4848
2018-03-24T14:27:47.589Z,4824